Time;durP1;ratioP1;P1;durP2;ratioP2;P2;SDS_P1;SDS_P2;PMS_P1;PMS_P2;Temp;Humidity;BMP_temperature;BMP_pressure;BME280_temperature;BME280_humidity;BME280_pressure;Samples;Min_cycle;Max_cycle;Signal;HPM_P1;HPM_P2
2022/08/13 00:00:14;;;;;;;6.00;4.53;;;;;;;;;;5048246;28;20406;-63
2022/08/13 00:02:42;;;;;;;5.07;3.97;;;;;;;;;;5047307;28;20079;-63
2022/08/13 00:05:09;;;;;;;5.33;4.00;;;;;;;;;;5048498;28;20106;-63
2022/08/13 00:07:35;;;;;;;6.80;3.53;;;;;;;;;;5048510;28;20518;-63
2022/08/13 00:10:02;;;;;;;7.27;4.10;;;;;;;;;;5046311;28;20539;-63
2022/08/13 00:15:20;;;;;;;9.33;4.70;;;;;;;;;;5048250;28;20053;-63
2022/08/13 00:17:49;;;;;;;6.37;4.30;;;;;;;;;;5047839;28;20515;-63
2022/08/13 00:20:17;;;;;;;9.30;4.60;;;;;;;;;;5046676;28;20474;-63
2022/08/13 00:22:43;;;;;;;8.80;4.50;;;;;;;;;;5046530;28;20098;-63
2022/08/13 00:25:10;;;;;;;9.37;4.70;;;;;;;;;;5046312;28;20411;-63
2022/08/13 00:27:36;;;;;;;8.63;4.37;;;;;;;;;;5047912;28;20049;-63
2022/08/13 00:30:05;;;;;;;10.00;4.70;;;;;;;;;;5048262;28;20411;-63
2022/08/13 00:32:31;;;;;;;9.90;4.10;;;;;;;;;;5047464;28;20163;-64
2022/08/13 00:34:58;;;;;;;11.73;4.53;;;;;;;;;;5047725;28;20056;-63
2022/08/13 00:37:28;;;;;;;7.70;5.33;;;;;;;;;;5048251;28;20041;-63
2022/08/13 00:39:54;;;;;;;7.83;4.93;;;;;;;;;;5047927;28;20395;-63
2022/08/13 00:42:27;;;;;;;9.70;5.00;;;;;;;;;;5047618;28;20081;-63
2022/08/13 00:44:53;;;;;;;7.93;5.07;;;;;;;;;;5047881;28;20049;-63
2022/08/13 00:50:05;;;;;;;8.37;5.03;;;;;;;;;;5048070;28;20088;-63
2022/08/13 00:52:33;;;;;;;9.57;5.03;;;;;;;;;;5047720;28;20495;-63
2022/08/13 00:55:07;;;;;;;7.53;4.43;;;;;;;;;;5046974;28;20045;-63
2022/08/13 00:57:33;;;;;;;8.93;5.13;;;;;;;;;;5047946;28;20103;-63
2022/08/13 00:59:59;;;;;;;8.40;5.00;;;;;;;;;;5047573;28;20099;-63
2022/08/13 01:02:25;;;;;;;9.10;4.50;;;;;;;;;;5047812;28;20396;-63
2022/08/13 01:04:53;;;;;;;9.13;5.10;;;;;;;;;;5047474;28;20056;-63
2022/08/13 01:07:19;;;;;;;5.37;4.83;;;;;;;;;;5047681;28;20045;-63
2022/08/13 01:09:46;;;;;;;7.03;5.17;;;;;;;;;;5047592;28;20466;-63
2022/08/13 01:12:13;;;;;;;8.67;4.53;;;;;;;;;;5047466;28;20482;-63
2022/08/13 01:14:40;;;;;;;9.80;4.60;;;;;;;;;;5047180;28;20044;-63
2022/08/13 01:17:07;;;;;;;7.80;4.73;;;;;;;;;;5046721;28;20052;-63
2022/08/13 01:19:34;;;;;;;6.90;4.77;;;;;;;;;;5047390;28;20049;-63
2022/08/13 01:22:01;;;;;;;9.93;4.67;;;;;;;;;;5028789;28;20486;-63
2022/08/13 01:24:31;;;;;;;6.23;5.00;;;;;;;;;;5047864;28;20422;-63
2022/08/13 01:26:57;;;;;;;7.80;4.70;;;;;;;;;;5048205;28;20115;-63
2022/08/13 01:29:24;;;;;;;7.70;4.80;;;;;;;;;;5047264;28;20049;-63
2022/08/13 01:31:53;;;;;;;6.97;4.70;;;;;;;;;;5047596;28;20045;-63
2022/08/13 01:34:19;;;;;;;10.97;5.27;;;;;;;;;;5050856;28;20064;-63
2022/08/13 01:36:46;;;;;;;7.73;4.67;;;;;;;;;;5050901;28;20454;-63
2022/08/13 01:39:12;;;;;;;6.67;4.63;;;;;;;;;;5051490;28;20099;-64
2022/08/13 01:41:38;;;;;;;12.67;6.23;;;;;;;;;;5051686;28;20144;-63
2022/08/13 01:44:05;;;;;;;8.93;4.80;;;;;;;;;;5051056;28;20044;-64
2022/08/13 01:52:04;;;;;;;9.97;4.80;;;;;;;;;;5050442;28;20045;-63
2022/08/13 01:54:31;;;;;;;6.57;4.57;;;;;;;;;;5050560;28;20422;-63
2022/08/13 01:56:59;;;;;;;7.63;4.13;;;;;;;;;;5051279;28;20045;-64
2022/08/13 01:59:25;;;;;;;5.13;4.50;;;;;;;;;;5050875;28;20056;-63
2022/08/13 02:01:53;;;;;;;7.30;4.50;;;;;;;;;;5050840;28;20044;-63
2022/08/13 02:04:20;;;;;;;9.57;3.90;;;;;;;;;;5050988;28;20433;-63
2022/08/13 02:06:47;;;;;;;5.87;4.47;;;;;;;;;;5050455;28;20117;-63
2022/08/13 02:09:13;;;;;;;6.63;4.33;;;;;;;;;;5050478;28;20053;-63
2022/08/13 02:11:39;;;;;;;6.47;4.53;;;;;;;;;;5050524;28;20102;-63
2022/08/13 02:14:05;;;;;;;7.53;3.60;;;;;;;;;;5050523;28;20574;-63
2022/08/13 02:16:32;;;;;;;7.40;3.37;;;;;;;;;;5049957;28;20056;-63
2022/08/13 02:18:58;;;;;;;7.37;3.07;;;;;;;;;;5050711;28;20088;-64
2022/08/13 02:21:25;;;;;;;6.77;3.17;;;;;;;;;;5050376;28;20037;-63
2022/08/13 02:23:58;;;;;;;6.73;3.03;;;;;;;;;;5050513;28;20586;-63
2022/08/13 02:26:24;;;;;;;4.55;3.75;;;;;;;;;;5050310;28;20410;-63
2022/08/13 02:28:54;;;;;;;5.93;3.80;;;;;;;;;;5049241;28;20471;-63
2022/08/13 02:31:21;;;;;;;4.57;3.37;;;;;;;;;;5049726;28;20558;-64
2022/08/13 02:33:48;;;;;;;7.93;3.43;;;;;;;;;;5050177;28;20099;-64
2022/08/13 02:36:15;;;;;;;4.77;3.43;;;;;;;;;;5049439;28;20406;-63
2022/08/13 02:38:42;;;;;;;5.27;3.33;;;;;;;;;;5049888;28;20522;-63
2022/08/13 02:43:54;;;;;;;7.80;4.10;;;;;;;;;;5048740;28;20076;-63
2022/08/13 02:46:21;;;;;;;7.13;4.10;;;;;;;;;;5049730;28;20049;-63
2022/08/13 02:48:48;;;;;;;12.03;4.07;;;;;;;;;;5049746;28;20060;-63
2022/08/13 02:51:14;;;;;;;11.07;4.03;;;;;;;;;;5049948;28;20119;-63
2022/08/13 02:53:42;;;;;;;6.60;4.33;;;;;;;;;;5049371;28;20509;-63
2022/08/13 02:56:11;;;;;;;4.83;3.60;;;;;;;;;;5049702;28;20055;-63
2022/08/13 02:58:39;;;;;;;10.60;4.80;;;;;;;;;;5048518;28;20044;-63
2022/08/13 03:01:10;;;;;;;5.93;3.90;;;;;;;;;;5049763;28;20063;-63
2022/08/13 03:03:37;;;;;;;8.50;4.07;;;;;;;;;;5049947;28;20048;-63
2022/08/13 03:06:03;;;;;;;8.57;4.67;;;;;;;;;;5049896;28;20089;-63
2022/08/13 03:08:31;;;;;;;7.90;3.80;;;;;;;;;;5049213;28;20064;-63
2022/08/13 03:10:57;;;;;;;7.40;4.50;;;;;;;;;;5050065;28;20372;-63
2022/08/13 03:13:26;;;;;;;7.37;4.33;;;;;;;;;;5049603;28;20056;-63
2022/08/13 03:15:54;;;;;;;9.07;3.80;;;;;;;;;;5048903;28;20127;-63
2022/08/13 03:18:20;;;;;;;7.33;3.97;;;;;;;;;;5049126;28;20518;-63
2022/08/13 03:20:48;;;;;;;7.90;4.17;;;;;;;;;;5049344;28;20056;-63
2022/08/13 03:23:14;;;;;;;7.10;4.47;;;;;;;;;;5048925;28;20482;-63
2022/08/13 03:25:40;;;;;;;9.83;4.63;;;;;;;;;;5047999;28;20049;-63
2022/08/13 03:28:06;;;;;;;6.40;3.97;;;;;;;;;;5047762;28;20053;-63
2022/08/13 03:30:34;;;;;;;5.27;3.40;;;;;;;;;;5048725;28;20142;-64
2022/08/13 03:33:04;;;;;;;7.43;4.30;;;;;;;;;;5048780;28;20052;-64
2022/08/13 03:35:31;;;;;;;7.87;4.40;;;;;;;;;;5048442;28;20064;-64
2022/08/13 03:37:57;;;;;;;10.03;4.27;;;;;;;;;;5048815;28;20045;-64
2022/08/13 03:40:24;;;;;;;6.43;4.30;;;;;;;;;;5048647;28;20045;-64
2022/08/13 03:42:51;;;;;;;6.33;4.37;;;;;;;;;;5048622;28;20041;-64
2022/08/13 03:45:17;;;;;;;6.67;4.40;;;;;;;;;;5048093;28;20048;-64
2022/08/13 03:47:44;;;;;;;7.30;4.60;;;;;;;;;;5049047;28;20486;-64
2022/08/13 03:50:11;;;;;;;7.77;4.13;;;;;;;;;;5048526;28;20052;-64
2022/08/13 03:52:38;;;;;;;7.13;4.97;;;;;;;;;;5049100;28;20041;-64
2022/08/13 03:55:11;;;;;;;8.10;4.43;;;;;;;;;;5048009;28;20041;-64
2022/08/13 03:57:41;;;;;;;7.97;4.13;;;;;;;;;;5048129;28;20129;-64
2022/08/13 04:00:11;;;;;;;7.47;4.60;;;;;;;;;;5048286;28;20166;-64
2022/08/13 04:02:41;;;;;;;9.03;4.47;;;;;;;;;;5048632;28;20053;-64
2022/08/13 04:05:16;;;;;;;8.33;4.97;;;;;;;;;;5048399;28;20053;-64
2022/08/13 04:07:42;;;;;;;8.43;4.70;;;;;;;;;;5048231;28;20127;-64
2022/08/13 04:10:09;;;;;;;8.00;3.97;;;;;;;;;;5047800;28;20430;-64
2022/08/13 04:12:36;;;;;;;7.97;4.30;;;;;;;;;;5048510;28;20068;-64
2022/08/13 04:15:02;;;;;;;7.13;3.97;;;;;;;;;;5048210;28;20127;-63
2022/08/13 04:17:28;;;;;;;6.13;4.37;;;;;;;;;;5047528;28;20055;-67
2022/08/13 04:19:57;;;;;;;5.90;3.87;;;;;;;;;;5048283;28;20048;-63
2022/08/13 04:22:23;;;;;;;5.40;4.57;;;;;;;;;;5045876;28;20047;-63
2022/08/13 04:24:49;;;;;;;5.33;4.00;;;;;;;;;;5048266;28;20056;-63
2022/08/13 04:27:15;;;;;;;5.30;4.17;;;;;;;;;;5047849;28;20102;-63
2022/08/13 04:29:41;;;;;;;10.33;4.63;;;;;;;;;;5047314;28;20057;-63
2022/08/13 04:32:07;;;;;;;11.97;4.13;;;;;;;;;;5047143;28;20090;-63
2022/08/13 04:34:33;;;;;;;8.00;4.63;;;;;;;;;;5047949;28;20056;-64
2022/08/13 04:37:01;;;;;;;5.63;4.30;;;;;;;;;;5047454;28;20102;-63
2022/08/13 04:39:27;;;;;;;10.10;4.33;;;;;;;;;;5045981;28;20457;-63
2022/08/13 04:41:53;;;;;;;8.37;4.00;;;;;;;;;;5047859;28;20140;-63
2022/08/13 04:44:19;;;;;;;9.50;4.77;;;;;;;;;;5048235;28;20075;-63
2022/08/13 04:46:46;;;;;;;7.60;4.67;;;;;;;;;;5047762;28;20049;-63
2022/08/13 04:49:12;;;;;;;7.23;3.83;;;;;;;;;;5047307;28;20049;-63
2022/08/13 04:51:39;;;;;;;8.23;3.93;;;;;;;;;;5048345;28;20461;-63
2022/08/13 04:54:05;;;;;;;5.93;4.23;;;;;;;;;;5035649;28;20046;-64
2022/08/13 04:56:31;;;;;;;9.47;3.90;;;;;;;;;;5033708;28;20045;-63
2022/08/13 04:58:57;;;;;;;5.13;4.23;;;;;;;;;;5047414;28;20045;-63
2022/08/13 05:01:24;;;;;;;4.57;3.77;;;;;;;;;;5047204;28;20451;-63
2022/08/13 05:03:51;;;;;;;4.60;3.80;;;;;;;;;;5047312;28;20045;-63
2022/08/13 05:06:19;;;;;;;5.80;4.47;;;;;;;;;;5047229;28;20053;-63
2022/08/13 05:08:49;;;;;;;6.90;3.53;;;;;;;;;;5051088;28;20060;-63
2022/08/13 05:11:18;;;;;;;6.67;4.13;;;;;;;;;;5050708;28;20064;-63
2022/08/13 05:13:45;;;;;;;5.97;3.40;;;;;;;;;;5051028;28;20052;-63
2022/08/13 05:16:13;;;;;;;9.13;4.07;;;;;;;;;;5050734;28;20068;-63
2022/08/13 05:18:43;;;;;;;9.17;3.97;;;;;;;;;;5051178;28;20135;-64
2022/08/13 05:21:09;;;;;;;4.57;3.50;;;;;;;;;;5050419;28;20048;-64
2022/08/13 05:23:37;;;;;;;10.80;3.97;;;;;;;;;;5050381;28;20091;-64
2022/08/13 05:26:03;;;;;;;10.60;4.23;;;;;;;;;;5051136;28;20388;-64
2022/08/13 05:28:31;;;;;;;8.13;3.53;;;;;;;;;;5050801;28;20238;-64
2022/08/13 05:30:58;;;;;;;7.77;3.97;;;;;;;;;;5050175;28;20041;-64
2022/08/13 05:33:25;;;;;;;9.63;3.70;;;;;;;;;;5049488;28;20080;-63
2022/08/13 05:35:56;;;;;;;3.60;3.03;;;;;;;;;;5050362;28;20498;-63
2022/08/13 05:38:23;;;;;;;8.13;4.90;;;;;;;;;;5051023;28;20402;-63
2022/08/13 05:40:53;;;;;;;5.03;3.70;;;;;;;;;;5049223;28;20091;-63
2022/08/13 05:43:21;;;;;;;10.23;4.80;;;;;;;;;;5050936;28;20056;-63
2022/08/13 05:45:49;;;;;;;6.60;2.83;;;;;;;;;;5050356;28;20565;-63
2022/08/13 05:48:15;;;;;;;3.83;3.07;;;;;;;;;;5050387;28;20053;-63
2022/08/13 05:50:45;;;;;;;9.67;2.83;;;;;;;;;;5050934;28;20060;-63
2022/08/13 05:53:11;;;;;;;7.60;3.17;;;;;;;;;;5049860;28;20763;-63
2022/08/13 05:55:40;;;;;;;7.83;2.73;;;;;;;;;;5049669;28;20045;-63
2022/08/13 05:58:08;;;;;;;9.93;3.30;;;;;;;;;;5050239;28;20048;-63
2022/08/13 06:03:25;;;;;;;4.17;3.00;;;;;;;;;;5029368;28;20089;-64
2022/08/13 06:05:58;;;;;;;3.97;2.33;;;;;;;;;;5040903;28;20576;-63
2022/08/13 06:08:27;;;;;;;;;;;;;;;;;;5050142;28;20049;-64
2022/08/13 06:10:53;;;;;;;2.60;2.00;;;;;;;;;;5050512;28;19921;-64
2022/08/13 06:13:19;;;;;;;3.37;2.30;;;;;;;;;;5049723;28;20068;-64
2022/08/13 06:15:57;;;;;;;8.90;2.27;;;;;;;;;;5046937;28;20537;-64
2022/08/13 06:18:24;;;;;;;3.33;2.00;;;;;;;;;;5049115;28;20095;-64
2022/08/13 06:20:51;;;;;;;5.43;1.97;;;;;;;;;;5049547;28;20449;-64
2022/08/13 06:23:17;;;;;;;8.27;2.33;;;;;;;;;;5048007;28;20041;-64
2022/08/13 06:25:43;;;;;;;7.83;2.00;;;;;;;;;;5048686;28;20040;-64
2022/08/13 06:28:10;;;;;;;4.00;1.80;;;;;;;;;;5051095;28;20053;-64
2022/08/13 06:30:38;;;;;;;3.60;1.87;;;;;;;;;;5047920;28;20435;-64
2022/08/13 06:33:04;;;;;;;6.27;2.03;;;;;;;;;;5050455;28;20450;-64
2022/08/13 06:35:31;;;;;;;4.20;1.90;;;;;;;;;;5051326;28;20053;-64
2022/08/13 06:37:57;;;;;;;3.73;1.70;;;;;;;;;;5049271;28;20077;-64
2022/08/13 06:40:24;;;;;;;6.27;1.97;;;;;;;;;;5051122;28;20044;-64
2022/08/13 06:42:51;;;;;;;4.20;1.70;;;;;;;;;;5049523;28;20041;-65
2022/08/13 06:45:21;;;;;;;8.70;2.07;;;;;;;;;;5047633;28;20114;-65
2022/08/13 06:47:48;;;;;;;3.70;1.50;;;;;;;;;;5049303;28;20139;-65
2022/08/13 06:50:14;;;;;;;3.80;1.50;;;;;;;;;;5049461;28;20073;-65
2022/08/13 06:52:40;;;;;;;2.70;1.40;;;;;;;;;;5048707;28;20410;-65
2022/08/13 06:55:07;;;;;;;7.53;1.70;;;;;;;;;;5049340;28;20115;-65
2022/08/13 06:57:34;;;;;;;3.60;1.53;;;;;;;;;;5049689;28;20059;-65
2022/08/13 07:00:00;;;;;;;4.60;1.50;;;;;;;;;;5049402;28;20052;-65
2022/08/13 07:02:28;;;;;;;3.43;1.40;;;;;;;;;;5048862;28;20041;-65
2022/08/13 07:04:55;;;;;;;5.97;1.67;;;;;;;;;;5049245;28;20057;-65
2022/08/13 07:07:22;;;;;;;4.33;1.47;;;;;;;;;;5049202;28;20120;-66
2022/08/13 07:09:48;;;;;;;6.40;1.50;;;;;;;;;;5048989;28;20056;-65
2022/08/13 07:12:15;;;;;;;4.40;1.63;;;;;;;;;;5048645;28;20572;-66
2022/08/13 07:14:42;;;;;;;2.67;1.53;;;;;;;;;;5049005;28;20536;-65
2022/08/13 07:17:10;;;;;;;3.67;1.10;;;;;;;;;;5048843;28;20449;-65
2022/08/13 07:19:37;;;;;;;3.20;1.30;;;;;;;;;;5048951;28;20056;-65
2022/08/13 07:22:03;;;;;;;4.67;1.30;;;;;;;;;;5048676;28;20045;-65
2022/08/13 07:24:29;;;;;;;2.70;1.43;;;;;;;;;;5046937;28;20045;-65
2022/08/13 07:26:59;;;;;;;4.03;1.27;;;;;;;;;;5047387;28;20063;-65
2022/08/13 07:29:28;;;;;;;5.03;1.00;;;;;;;;;;5048208;28;20049;-65
2022/08/13 07:31:54;;;;;;;2.33;1.27;;;;;;;;;;5047912;28;20072;-65
2022/08/13 07:34:21;;;;;;;3.43;1.30;;;;;;;;;;5047407;28;20103;-65
2022/08/13 07:36:56;;;;;;;4.47;1.17;;;;;;;;;;5047584;28;20049;-65
2022/08/13 07:39:22;;;;;;;5.07;1.30;;;;;;;;;;5045875;28;20057;-65
2022/08/13 07:41:49;;;;;;;6.30;1.27;;;;;;;;;;5047024;28;20045;-65
2022/08/13 07:44:21;;;;;;;4.13;1.47;;;;;;;;;;5047112;28;20127;-65
2022/08/13 07:46:48;;;;;;;7.50;1.35;;;;;;;;;;5047733;28;20399;-65
2022/08/13 07:49:14;;;;;;;3.17;1.10;;;;;;;;;;5047717;28;20517;-65
2022/08/13 07:51:42;;;;;;;4.83;1.40;;;;;;;;;;5047469;28;20048;-65
2022/08/13 07:54:09;;;;;;;5.80;0.90;;;;;;;;;;5046803;28;20410;-65
2022/08/13 07:56:35;;;;;;;1.87;1.20;;;;;;;;;;5047017;28;20049;-65
2022/08/13 07:59:04;;;;;;;3.50;1.00;;;;;;;;;;5047402;28;20485;-65
2022/08/13 08:01:31;;;;;;;2.27;1.10;;;;;;;;;;5046660;28;20088;-65
2022/08/13 08:03:58;;;;;;;5.57;1.50;;;;;;;;;;5047488;28;20171;-65
2022/08/13 08:06:25;;;;;;;3.70;1.30;;;;;;;;;;5047928;28;20055;-65
2022/08/13 08:08:53;;;;;;;6.30;1.30;;;;;;;;;;5047131;28;20065;-65
2022/08/13 08:14:05;;;;;;;2.83;1.07;;;;;;;;;;5047959;28;20518;-65
2022/08/13 08:16:31;;;;;;;2.90;1.20;;;;;;;;;;5047926;28;20557;-65
2022/08/13 08:19:01;;;;;;;7.97;1.43;;;;;;;;;;5047338;28;20155;-65
2022/08/13 08:21:28;;;;;;;5.10;1.17;;;;;;;;;;5047948;28;20127;-65
2022/08/13 08:23:59;;;;;;;4.97;1.03;;;;;;;;;;5046472;28;20055;-65
2022/08/13 08:26:29;;;;;;;5.15;1.27;;;;;;;;;;5047861;28;20178;-65
2022/08/13 08:28:56;;;;;;;4.00;1.15;;;;;;;;;;5047793;28;20137;-65
2022/08/13 08:31:23;;;;;;;1.73;0.93;;;;;;;;;;5047400;28;20045;-65
2022/08/13 08:33:50;;;;;;;4.78;1.27;;;;;;;;;;5047388;28;20067;-65
2022/08/13 08:36:16;;;;;;;2.72;1.02;;;;;;;;;;5047471;28;20053;-65
2022/08/13 08:44:17;;;;;;;6.93;1.10;;;;;;;;;;5047355;28;20502;-65
2022/08/13 08:46:44;;;;;;;2.38;1.00;;;;;;;;;;5047730;28;20048;-65
2022/08/13 08:49:10;;;;;;;2.97;1.02;;;;;;;;;;5047330;28;20496;-65
2022/08/13 08:51:36;;;;;;;8.55;1.40;;;;;;;;;;5047664;28;20049;-65
2022/08/13 08:54:03;;;;;;;6.30;1.30;;;;;;;;;;5047412;28;20052;-65
2022/08/13 08:56:33;;;;;;;3.05;1.23;;;;;;;;;;5047152;28;20045;-66
2022/08/13 08:58:59;;;;;;;8.02;1.30;;;;;;;;;;5047263;28;20057;-65
2022/08/13 09:01:25;;;;;;;4.50;1.40;;;;;;;;;;5047680;28;20497;-65
2022/08/13 09:03:56;;;;;;;5.50;1.30;;;;;;;;;;5046002;28;20049;-65
2022/08/13 09:06:23;;;;;;;3.17;1.20;;;;;;;;;;5047348;28;20095;-66
2022/08/13 09:08:50;;;;;;;4.63;1.10;;;;;;;;;;5047205;28;20137;-66
2022/08/13 09:11:19;;;;;;;5.15;1.30;;;;;;;;;;5046830;28;20387;-66
2022/08/13 09:13:49;;;;;;;3.25;1.15;;;;;;;;;;5047468;28;20087;-66
2022/08/13 09:16:18;;;;;;;5.95;1.50;;;;;;;;;;5047219;28;20057;-65
2022/08/13 09:18:44;;;;;;;2.58;0.90;;;;;;;;;;5047427;28;20072;-66
2022/08/13 09:21:10;;;;;;;2.38;1.05;;;;;;;;;;5046867;28;20045;-66
2022/08/13 09:23:42;;;;;;;1.90;1.00;;;;;;;;;;5047024;28;20059;-65
2022/08/13 09:26:10;;;;;;;2.72;1.10;;;;;;;;;;5047205;28;20077;-66
2022/08/13 09:28:38;;;;;;;3.67;0.90;;;;;;;;;;5047144;28;20053;-66
2022/08/13 09:31:04;;;;;;;2.63;1.00;;;;;;;;;;5047180;28;20048;-66
2022/08/13 09:33:31;;;;;;;1.70;0.90;;;;;;;;;;5046753;28;20041;-66
2022/08/13 09:35:57;;;;;;;3.40;1.20;;;;;;;;;;5047094;28;20059;-66
2022/08/13 09:38:24;;;;;;;3.15;1.35;;;;;;;;;;5046830;28;20131;-66
2022/08/13 09:41:14;;;;;;;3.75;1.55;;;;;;;;;;5047109;28;20041;-66
2022/08/13 09:43:44;;;;;;;3.67;1.35;;;;;;;;;;5045409;28;20049;-66
2022/08/13 09:46:11;;;;;;;2.30;1.00;;;;;;;;;;5046430;28;20041;-66
2022/08/13 09:48:37;;;;;;;3.08;1.42;;;;;;;;;;5046394;28;20045;-66
2022/08/13 09:51:04;;;;;;;3.75;1.05;;;;;;;;;;5046924;28;20037;-66
2022/08/13 09:53:30;;;;;;;1.95;1.00;;;;;;;;;;5048251;28;20044;-66
2022/08/13 09:55:56;;;;;;;2.42;1.02;;;;;;;;;;5048668;28;20055;-66
2022/08/13 09:58:23;;;;;;;3.55;0.90;;;;;;;;;;5050236;28;20124;-66
2022/08/13 10:00:50;;;;;;;3.55;1.20;;;;;;;;;;5050535;28;20503;-66
2022/08/13 10:03:17;;;;;;;7.65;1.63;;;;;;;;;;5050558;28;20049;-66
2022/08/13 10:05:44;;;;;;;5.25;0.90;;;;;;;;;;5050370;28;20045;-66
2022/08/13 10:08:15;;;;;;;1.73;0.98;;;;;;;;;;5049998;28;20123;-66
2022/08/13 10:10:42;;;;;;;4.90;1.00;;;;;;;;;;5050165;28;20057;-66
2022/08/13 10:13:08;;;;;;;3.95;1.00;;;;;;;;;;5050422;28;20353;-66
2022/08/13 10:15:34;;;;;;;3.25;1.30;;;;;;;;;;5050426;28;20083;-66
2022/08/13 10:18:04;;;;;;;5.22;1.15;;;;;;;;;;5049988;28;20056;-66
2022/08/13 10:20:36;;;;;;;3.20;1.40;;;;;;;;;;5049928;28;20107;-66
2022/08/13 10:23:03;;;;;;;4.05;1.08;;;;;;;;;;5049968;28;20049;-66
2022/08/13 10:25:29;;;;;;;4.45;1.13;;;;;;;;;;5049944;28;20384;-66
2022/08/13 10:27:55;;;;;;;4.07;1.08;;;;;;;;;;5050047;28;20132;-66
2022/08/13 10:30:26;;;;;;;3.25;0.77;;;;;;;;;;5049394;28;20052;-66
2022/08/13 10:32:55;;;;;;;4.35;1.10;;;;;;;;;;5048869;28;20049;-66
2022/08/13 10:35:27;;;;;;;5.32;1.25;;;;;;;;;;5049724;28;20045;-66
2022/08/13 10:37:54;;;;;;;4.05;1.13;;;;;;;;;;5049698;28;20102;-66
2022/08/13 10:40:22;;;;;;;2.17;0.98;;;;;;;;;;5048955;28;20045;-66
2022/08/13 10:42:48;;;;;;;2.83;0.73;;;;;;;;;;5049746;28;20049;-66
2022/08/13 10:45:14;;;;;;;3.53;0.95;;;;;;;;;;5049534;28;20044;-66
2022/08/13 10:47:48;;;;;;;2.00;1.00;;;;;;;;;;5049703;28;20057;-66
2022/08/13 10:50:15;;;;;;;2.85;1.23;;;;;;;;;;5048808;28;20485;-66
2022/08/13 10:52:42;;;;;;;1.95;0.90;;;;;;;;;;5049453;28;20045;-66
2022/08/13 10:55:12;;;;;;;4.22;0.90;;;;;;;;;;5049412;28;20041;-66
2022/08/13 10:57:42;;;;;;;2.22;0.93;;;;;;;;;;5049483;28;20044;-66
2022/08/13 11:00:11;;;;;;;3.67;1.02;;;;;;;;;;5049464;28;20084;-66
2022/08/13 11:02:37;;;;;;;3.10;0.80;;;;;;;;;;5049253;28;20091;-66
2022/08/13 11:05:05;;;;;;;6.15;1.00;;;;;;;;;;5047773;28;20517;-66
2022/08/13 11:07:32;;;;;;;2.38;0.80;;;;;;;;;;5049460;28;20048;-66
2022/08/13 11:09:59;;;;;;;3.35;0.90;;;;;;;;;;5049060;28;20057;-66
2022/08/13 11:12:25;;;;;;;3.17;0.90;;;;;;;;;;5048966;28;20708;-66
2022/08/13 11:14:51;;;;;;;1.77;0.65;;;;;;;;;;5049201;28;20052;-66
2022/08/13 11:17:18;;;;;;;5.13;1.23;;;;;;;;;;5048407;28;20080;-66
2022/08/13 11:19:48;;;;;;;3.65;0.98;;;;;;;;;;5048949;28;20144;-66
2022/08/13 11:22:15;;;;;;;4.20;0.90;;;;;;;;;;5048721;28;20049;-64
2022/08/13 11:24:41;;;;;;;1.63;0.70;;;;;;;;;;5048988;28;20048;-66
2022/08/13 11:27:07;;;;;;;2.60;0.90;;;;;;;;;;5048750;28;20065;-64
2022/08/13 11:29:33;;;;;;;4.20;0.90;;;;;;;;;;5048299;28;20059;-64
2022/08/13 11:31:59;;;;;;;3.75;1.58;;;;;;;;;;5048439;28;20514;-64
2022/08/13 11:34:28;;;;;;;1.35;0.75;;;;;;;;;;5048399;28;20037;-64
2022/08/13 11:36:54;;;;;;;2.85;1.00;;;;;;;;;;5048368;28;20045;-64
2022/08/13 11:39:20;;;;;;;2.10;0.93;;;;;;;;;;5048021;28;20051;-64
2022/08/13 11:41:46;;;;;;;3.78;0.90;;;;;;;;;;5048604;28;20037;-64
2022/08/13 11:44:12;;;;;;;2.08;0.80;;;;;;;;;;5048142;28;20047;-64
2022/08/13 11:46:38;;;;;;;1.95;0.95;;;;;;;;;;5048450;28;20139;-64
2022/08/13 11:49:05;;;;;;;4.32;0.95;;;;;;;;;;5048480;28;20041;-64
2022/08/13 11:51:31;;;;;;;3.47;0.90;;;;;;;;;;5048121;28;20053;-64
2022/08/13 11:53:57;;;;;;;2.75;1.00;;;;;;;;;;5047914;28;20052;-64
2022/08/13 11:56:23;;;;;;;2.35;0.80;;;;;;;;;;5047812;28;20166;-64
2022/08/13 11:58:51;;;;;;;2.28;0.80;;;;;;;;;;5048199;28;20063;-64
2022/08/13 12:01:18;;;;;;;2.38;0.70;;;;;;;;;;5048147;28;20052;-64
2022/08/13 12:03:45;;;;;;;2.15;1.20;;;;;;;;;;5048234;28;20127;-64
2022/08/13 12:06:11;;;;;;;1.95;0.80;;;;;;;;;;5047680;28;20044;-64
2022/08/13 12:08:37;;;;;;;2.30;0.80;;;;;;;;;;5047720;28;20053;-64
2022/08/13 12:11:04;;;;;;;2.63;0.80;;;;;;;;;;5048419;28;20462;-64
2022/08/13 12:13:30;;;;;;;2.05;0.82;;;;;;;;;;5047963;28;20055;-64
2022/08/13 12:15:56;;;;;;;1.40;0.88;;;;;;;;;;5048006;28;20502;-64
2022/08/13 12:18:22;;;;;;;1.20;0.80;;;;;;;;;;5047135;28;20144;-65
2022/08/13 12:20:48;;;;;;;3.92;1.00;;;;;;;;;;5047389;28;20482;-65
2022/08/13 12:23:15;;;;;;;1.88;1.00;;;;;;;;;;5047723;28;20421;-65
2022/08/13 12:25:41;;;;;;;3.80;0.95;;;;;;;;;;5047784;28;20045;-64
2022/08/13 12:28:08;;;;;;;2.13;1.00;;;;;;;;;;5047647;28;20041;-64
2022/08/13 12:30:34;;;;;;;1.60;0.88;;;;;;;;;;5046549;28;20076;-65
2022/08/13 12:33:00;;;;;;;2.03;0.90;;;;;;;;;;5046731;28;20055;-65
2022/08/13 12:35:26;;;;;;;2.83;0.90;;;;;;;;;;5048083;28;20037;-65
2022/08/13 12:37:53;;;;;;;1.10;0.70;;;;;;;;;;5047492;28;20045;-65
2022/08/13 12:40:19;;;;;;;1.80;0.73;;;;;;;;;;5047322;28;20052;-65
2022/08/13 12:42:45;;;;;;;3.33;1.17;;;;;;;;;;5047704;28;20037;-65
2022/08/13 12:45:13;;;;;;;2.33;1.30;;;;;;;;;;5047169;28;20096;-65
2022/08/13 12:47:40;;;;;;;3.83;1.10;;;;;;;;;;5047331;28;20088;-65
2022/08/13 12:50:06;;;;;;;4.35;1.00;;;;;;;;;;5047442;28;20072;-65
2022/08/13 12:52:32;;;;;;;3.10;1.60;;;;;;;;;;5047733;28;20709;-65
2022/08/13 12:55:00;;;;;;;1.50;0.90;;;;;;;;;;5047503;28;20124;-65
2022/08/13 12:57:26;;;;;;;3.10;0.98;;;;;;;;;;5047158;28;20048;-65
2022/08/13 12:59:52;;;;;;;1.83;0.85;;;;;;;;;;5047280;28;20462;-65
2022/08/13 13:02:18;;;;;;;1.90;0.80;;;;;;;;;;5047439;28;20048;-65
2022/08/13 13:04:45;;;;;;;3.28;0.80;;;;;;;;;;5047503;28;20045;-65
2022/08/13 13:07:11;;;;;;;2.58;1.00;;;;;;;;;;5047262;28;20053;-65
2022/08/13 13:09:37;;;;;;;2.67;1.00;;;;;;;;;;5047180;28;20053;-65
2022/08/13 13:12:03;;;;;;;5.53;1.00;;;;;;;;;;5046878;28;20137;-65
2022/08/13 13:14:29;;;;;;;2.72;1.02;;;;;;;;;;5047307;28;20118;-65
2022/08/13 13:16:55;;;;;;;2.65;0.85;;;;;;;;;;5047208;28;20072;-65
2022/08/13 13:19:21;;;;;;;1.42;1.00;;;;;;;;;;5046716;28;20089;-65
2022/08/13 13:21:48;;;;;;;3.25;0.90;;;;;;;;;;5047168;28;20041;-65
2022/08/13 13:24:15;;;;;;;1.90;0.90;;;;;;;;;;5047139;28;20052;-65
2022/08/13 13:26:42;;;;;;;2.55;1.13;;;;;;;;;;5047312;28;20037;-65
2022/08/13 13:29:10;;;;;;;2.13;1.25;;;;;;;;;;5049164;28;20121;-65
2022/08/13 13:31:37;;;;;;;1.52;0.90;;;;;;;;;;5049458;28;20127;-65
2022/08/13 13:34:03;;;;;;;7.07;1.17;;;;;;;;;;5049588;28;20057;-65
2022/08/13 13:36:30;;;;;;;4.10;1.10;;;;;;;;;;5050886;28;20507;-65
2022/08/13 13:38:56;;;;;;;5.68;1.13;;;;;;;;;;5051152;28;20124;-65
2022/08/13 13:41:22;;;;;;;2.47;1.00;;;;;;;;;;5050909;28;20182;-65
2022/08/13 13:43:48;;;;;;;1.90;0.90;;;;;;;;;;5050417;28;20052;-65
2022/08/13 13:46:14;;;;;;;2.38;0.90;;;;;;;;;;5050033;28;20056;-65
2022/08/13 13:48:40;;;;;;;1.88;0.93;;;;;;;;;;5050589;28;20137;-65
2022/08/13 13:51:11;;;;;;;2.38;1.00;;;;;;;;;;5050546;28;20152;-65
2022/08/13 13:53:38;;;;;;;1.30;0.83;;;;;;;;;;5050639;28;20499;-65
2022/08/13 13:56:08;;;;;;;4.03;1.00;;;;;;;;;;5049771;28;20049;-65
2022/08/13 13:58:34;;;;;;;4.37;1.10;;;;;;;;;;5050526;28;20044;-65
2022/08/13 14:01:01;;;;;;;1.40;0.90;;;;;;;;;;5050419;28;20052;-65
2022/08/13 14:03:31;;;;;;;3.58;1.20;;;;;;;;;;5050071;28;20048;-65
2022/08/13 14:06:00;;;;;;;2.42;0.80;;;;;;;;;;5050807;28;20048;-65
2022/08/13 14:08:28;;;;;;;2.60;0.88;;;;;;;;;;5050268;28;20161;-65
2022/08/13 14:10:55;;;;;;;4.85;1.08;;;;;;;;;;5050281;28;20053;-65
2022/08/13 14:13:21;;;;;;;5.07;1.10;;;;;;;;;;5049236;28;20051;-65
2022/08/13 14:15:48;;;;;;;2.47;1.00;;;;;;;;;;5050137;28;20692;-65
2022/08/13 14:18:15;;;;;;;2.33;1.38;;;;;;;;;;5049738;28;20057;-66
2022/08/13 14:20:43;;;;;;;4.28;1.23;;;;;;;;;;5049997;28;20064;-65
2022/08/13 14:23:09;;;;;;;5.70;1.00;;;;;;;;;;5050037;28;20179;-65
2022/08/13 14:25:36;;;;;;;2.97;1.10;;;;;;;;;;5050057;28;20041;-65
2022/08/13 14:28:02;;;;;;;3.03;1.00;;;;;;;;;;5049366;28;20041;-65
2022/08/13 14:30:29;;;;;;;3.00;1.23;;;;;;;;;;5049954;28;20082;-65
2022/08/13 14:32:56;;;;;;;2.95;1.30;;;;;;;;;;5049775;28;20041;-65
2022/08/13 14:35:22;;;;;;;5.78;1.00;;;;;;;;;;5049540;28;20129;-65
2022/08/13 14:37:49;;;;;;;3.47;1.10;;;;;;;;;;5049620;28;20052;-65
2022/08/13 14:40:17;;;;;;;2.67;1.20;;;;;;;;;;5048187;28;20045;-65
2022/08/13 14:42:44;;;;;;;5.88;1.08;;;;;;;;;;5049800;28;20367;-65
2022/08/13 14:47:56;;;;;;;5.55;1.40;;;;;;;;;;5049954;28;20053;-65
2022/08/13 14:50:23;;;;;;;2.28;1.08;;;;;;;;;;5049897;28;20049;-65
2022/08/13 14:52:50;;;;;;;5.57;1.27;;;;;;;;;;5049808;28;20103;-65
2022/08/13 14:55:17;;;;;;;3.67;1.20;;;;;;;;;;5049149;28;20109;-65
2022/08/13 14:57:44;;;;;;;3.33;1.40;;;;;;;;;;5049366;28;20049;-65
2022/08/13 15:00:12;;;;;;;2.03;1.10;;;;;;;;;;5049244;28;20401;-65
2022/08/13 15:02:39;;;;;;;6.07;1.23;;;;;;;;;;5049001;28;20211;-65
2022/08/13 15:05:06;;;;;;;3.53;1.17;;;;;;;;;;5049391;28;20136;-65
2022/08/13 15:07:32;;;;;;;3.22;1.30;;;;;;;;;;5048892;28;20598;-65
2022/08/13 15:10:00;;;;;;;7.13;1.90;;;;;;;;;;5049086;28;20061;-65